Tiempo atmosférico en la estación meteorológica de Medina De Pomar, Burgos (580 m.)



Fecha
DESCASC
Temp. máxima en grados centígrados (hora)
DESCASC
Temp. mínima en grados centígrados (hora)
DESCASC
Temp. media en grados centígrados
DESCASC
Racha de viento máxima en m/sg (hora)
DESCASC
Velocidad máxima media en intervalos de 10 minutos(hora)
DESCASC
Precipitaciones diarias en mm
DESCASC
Precipitaciones de 00:00 a 06:00 en mm
DESCASC
Precipitaciones de 06:00 a 12:00 en mm
DESCASC
Precipitaciones de 12:00 a 18:00 en mm
DESCASC
Precipitaciones de 18:00 a 24:00 en mm
DESCASC
15-08-2019 25.2 (15:00) 15.3 (08:20) 20.3 9.44 (15:20) 5 (19:40) 0 0 0 0 0
14-08-2019 29.8 (16:10) 8.5 (00:00) 19.1 9.72 (18:00) 5 (18:30) 0 0 0 0 0
13-08-2019 24.1 (17:20) 8.9 (00:00) 16.5 9.44 (19:00) 3.61 (20:20) 0 0 0 0 0
12-08-2019 20.9 (14:20) 8.8 (00:00) 14.8 10.28 (16:30) 4.72 (16:40) 0.2 0 0.2 0 0
11-08-2019 22.4 (14:40) 12.9 (00:00) 17.6 10.83 (16:00) 4.17 (15:40) 12 4.6 1.2 5.6 0.6
10-08-2019 25.5 (14:30) 13.3 (00:00) 19.4 13.89 (16:00) 5.83 (16:00) 0 0 0 0 0
09-08-2019 31.4 (17:30) 18.5 (00:00) 24.9 15.83 (17:00) 6.11 (17:00) 0.6 0 0.4 0.2 0
08-08-2019 33.5 (18:40) 18.2 (00:00) 25.9 12.22 (11:50) 5 (11:50) 0 0 0 0 0
07-08-2019 29.9 (14:40) 16.2 (00:00) 23.1 13.61 (20:30) 5.56 (19:00) 0 0 0 0 0
06-08-2019 32.4 (15:40) 11.3 (00:00) 21.9 9.44 (18:20) 4.44 (19:50) 0 0 0 0 0
05-08-2019 30 (15:30) 11.7 (00:00) 20.8 10 (17:20) 5.28 (17:20) 0 0 0 0 0
04-08-2019 29.6 (16:00) 14.8 (00:00) 22.2 10.56 (17:30) 6.11 (20:10) 0 0 0 0 0
03-08-2019 34.4 (16:10) 11.7 (00:00) 23.1 10.56 (19:20) 5.28 (19:20) 0 0 0 0 0
02-08-2019 28.8 (17:40) 14.9 (00:00) 21.8 7.22 (17:10) 3.61 (17:00) 0 0 0 0 0
01-08-2019 22.5 (16:00) 14.9 (00:00) 18.7 9.17 (17:40) 5 (17:40) 1.8 1.8 0 0 0
31-07-2019 22.8 (13:40) 9.9 (00:00) 16.3 9.72 (13:00) 4.17 (16:30) 0 0 0 0 0
30-07-2019 22.9 (16:00) 13.7 (00:00) 18.3 9.17 (19:40) 4.44 (18:10) 0 0 0 0 0
29-07-2019 29.8 (15:40) 9.6 (00:00) 19.7 13.61 (16:50) 6.67 (16:40) 0 0 0 0 0
28-07-2019 26.4 (17:10) 11.5 (00:00) 18.9 8.33 (20:00) 4.17 (19:20) 1.6 1.2 0.4 0 0
27-07-2019 18.1 (18:00) 13.1 (00:00) 15.6 7.78 (19:30) 2.78 (19:30) 8.2 0.4 2 3.2 2.6
26-07-2019 20.2 (00:00) 16 (00:00) 18.1 8.89 (20:20) 4.17 (20:10) 1.4 0 0.2 1 0.2
25-07-2019 36.6 (17:10) 15.1 (00:00) 25.8 13.06 (19:20) 6.39 (19:00) 0 0 0 0 0
24-07-2019 37.2 (16:40) 15.8 (00:00) 26.5 12.22 (18:20) 5.56 (20:00) 0.6 0.4 0.2 0 0
23-07-2019 38.3 (18:20) 15.4 (00:00) 26.8 16.11 (20:20) 7.78 (19:00) 0 0 0 0 0
22-07-2019 38.5 (18:10) 18.4 (00:00) 28.4 10.28 (22:30) 3.89 (20:00) 0 0 0 0 0
21-07-2019 28.4 (17:30) 17.8 (00:00) 23.1 11.11 (19:50) 5.56 (19:10) 0 0 0 0 0
20-07-2019 28.5 (14:10) 14.4 (00:00) 21.4 11.94 (17:30) 5.83 (20:10) 0 0 0 0 0
19-07-2019 36.4 (17:40) 9.7 (00:00) 23.1 10 (18:20) 5 (18:10) 0 0 0 0 0
18-07-2019 27.1 (16:20) 11.1 (00:00) 19.1 8.89 (18:00) 4.17 (20:00) 0 0 0 0 0

Gráficas

Temp. máximas Temp. mínimas Temp. medias Precipitaciones Rachas de viento máximas Velocidades máximas media en intervalos de 10 minutos

Datos horarios

Fecha y hora oficial Temperatura (ºC) Velocidad del viento (km/h) Dirección del viento Racha (km/h) Dirección de racha Precipitación (mm) Presión (hPa) Tendencia (hPa) Humedad (%)
2019-08-16 23:00:00 20.3 6 Norte 13 Norte 0 951.6 1.9 62
2019-08-16 22:00:00 21.9 3 Noroeste 18 Nordeste 0 950.9 1.7 57
2019-08-16 21:00:00 23.9 6 Nordeste 25 Nordeste 0 950.4 1.2 53
2019-08-16 20:00:00 26.7 14 Nordeste 30 Nordeste 0 949.7 0.5 44
2019-08-16 19:00:00 29.2 12 Norte 31 Norte 0 949.2 0 37
2019-08-16 18:00:00 31 15 Nordeste 32 Nordeste 0 949.2 -0.7 30
2019-08-16 17:00:00 31.8 16 Nordeste 34 Nordeste 0 949.2 -1.7 28
2019-08-16 16:00:00 32.4 5 Nordeste 18 Norte 0 949.2 -2.7 24
2019-08-16 15:00:00 31.2 6 Norte 14 Noroeste 0 949.9 -2.8 26
2019-08-16 14:00:00 28 3 Nordeste 9 Norte 0 950.9 -2.3 31
2019-08-16 13:00:00 24.3 2 Nordeste 8 Oeste 0 951.9 -1.8 40
2019-08-16 12:00:00 19.9 4 Este 14 Sudeste 0 952.7 -1.2 61
2019-08-16 11:00:00 15.5 2 Sudoeste 9 Sudeste 0 953.2 -0.8 80
2019-08-16 10:00:00 13.5 4 Sur 9 Sur 0 953.7 -0.2 90
2019-08-16 09:00:00 12.5 3 Sur 6 Sur 0 953.9 0.1 91
2019-08-16 08:00:00 11.5 2 Nordeste 6 Nordeste 0 954 -0.2 92
2019-08-16 07:00:00 10.7 2 Nordeste 6 Norte 0 953.9 -0.2 92
2019-08-16 06:00:00 10 5 Nordeste 8 Norte 0 953.8 -1 91
2019-08-16 05:00:00 10.5 0 Calma 7 Norte 0 954.2 -1 90
2019-08-16 04:00:00 11.1 2 Nordeste 6 Nordeste 0 954.1 -1.3 90
2019-08-16 03:00:00 12.2 0 Calma 4 Nordeste 0 954.8 -1.2 88
2019-08-16 02:00:00 13.3 3 Norte 9 Norte 0 955.2 -1.1 86
2019-08-16 01:00:00 14.3 3 Este 15 Nordeste 0 955.4 -0.2 82
2019-08-16 00:00:00 15.4 8 Nordeste 18 Norte 0 956 0.9 79
2019-08-15 23:00:00 16.3 8 Nordeste 24 Norte 0 956.3 1 75
2019-08-15 22:00:00 17.5 8 Nordeste 18 Nordeste 0 955.6 0.3 71
2019-08-15 21:00:00 19 6 Norte 25 Norte 0 955.1 -0.2 65
2019-08-15 20:00:00 20.6 9 Norte 33 Nordeste 0 955.3 0.2 59
2019-08-15 19:00:00 22 12 Norte 33 Nordeste 0 955.3 0.1 55
2019-08-15 18:00:00 22.7 17 Nordeste 33 Nordeste 0 955.3 0.1 52
2019-08-15 17:00:00 24 15 Nordeste 34 Nordeste 0 955.1 -0.4 50
2019-08-15 16:00:00 24.6 13 Nordeste 34 Nordeste 0 955.2 -0.6 46
2019-08-15 15:00:00 24.7 13 Nordeste 31 Nordeste 0 955.2 -0.8 44
2019-08-15 14:00:00 23.9 12 Nordeste 30 Nordeste 0 955.5 -0.8 46
2019-08-15 13:00:00 23.6 5 Norte 20 Nordeste 0 955.8 -0.4 45
2019-08-15 12:00:00 21.4 5 Norte 17 Nordeste 0 956 -0.2 52
2019-08-15 11:00:00 18.8 4 Nordeste 10 Sudoeste 0 956.3 0.4 67
2019-08-15 10:00:00 18.8 4 Nordeste 12 Nordeste 0 956.2 0.8 72
2019-08-15 09:00:00 16.9 3 Noroeste 7 Norte 0 956.2 1.3 79
2019-08-15 08:00:00 15.4 3 Oeste 6 Noroeste 0 955.9 1.1 84
2019-08-15 07:00:00 16.8 0 Calma 5 Noroeste 0 955.4 0.5 82
2019-08-15 06:00:00 17 2 Oeste 9 Noroeste 0 954.9 -0.1 82
2019-08-15 05:00:00 16.9 3 Sudoeste 6 Sudoeste 0 954.8 -0.5 82
2019-08-15 04:00:00 16.5 0 Calma 4 Oeste 0 954.9 -0.4 83
2019-08-15 03:00:00 16.5 0 Calma 3 Este 0 955 -0.3 83
2019-08-15 02:00:00 16.3 0 Calma 5 Sudoeste 0 955.3 0 84
2019-08-15 01:00:00 16.4 3 Nordeste 8 Oeste 0 955.3 0.7 82
2019-08-15 00:00:00 17 3 Sudoeste 10 Nordeste 0 955.3 1.8 79
2019-08-14 23:00:00 18.3 3 Norte 26 Nordeste 0 955.3 2.3 75
2019-08-14 22:00:00 19.8 11 Nordeste 24 Norte 0 954.6 1.7 65
2019-08-14 21:00:00 22.1 11 Nordeste 23 Nordeste 0 953.5 0.7 51
2019-08-14 20:00:00 24.4 9 Norte 31 Nordeste 0 953 0.4 43
2019-08-14 19:00:00 25.8 13 Nordeste 31 Nordeste 0 952.9 0.1 37
2019-08-14 18:00:00 26.8 15 Norte 35 Norte 0 952.8 -0.3 37
2019-08-14 17:00:00 28.1 10 Norte 24 Nordeste 0 952.6 -1 36
2019-08-14 16:00:00 29.7 12 Nordeste 26 Este 0 952.8 -1.3 31
2019-08-14 15:00:00 28 4 Oeste 23 Norte 0 953.1 -1.4 31
2019-08-14 14:00:00 26.9 6 Norte 14 Norte 0 953.6 -1.1 30
2019-08-14 13:00:00 24.8 4 Nordeste 12 Norte 0 954.1 -1.2 36
2019-08-14 12:00:00 21.5 4 Norte 11 Norte 0 954.5 -0.6 48
2019-08-14 11:00:00 18.3 4 Sudeste 9 Sur 0 954.7 -0.2 61
2019-08-14 10:00:00 15 3 Sudeste 9 Sudeste 0 955.3 0.8 73
2019-08-14 09:00:00 12.1 4 Sudeste 7 Sudeste 0 955.1 1 82
2019-08-14 08:00:00 9 0 Calma 5 Este 0 954.9 0.2 92
2019-08-14 07:00:00 8.9 2 Sur 8 Norte 0 954.5 -0.2 91
2019-08-14 06:00:00 9.4 2 Este 6 Sudoeste 0 954.1 -1.2 91
2019-08-14 05:00:00 9.9 3 Norte 10 Nordeste 0 954.7 -0.9 90
2019-08-14 04:00:00 10.5 3 Sudeste 9 Norte 0 954.7 -0.9 89
2019-08-14 03:00:00 11 0 Calma 4 Nordeste 0 955.3 -0.4 87
2019-08-14 02:00:00 11.8 3 Nordeste 10 Norte 0 955.6 0.1 83
2019-08-14 01:00:00 13 3 Sudeste 12 Norte 0 955.6 0.5 80
2019-08-14 00:00:00 14.1 4 Norte 12 Norte 0 955.7 1.1 77
2019-08-13 23:00:00 15.4 6 Norte 15 Norte 0 955.5 1.4 71
2019-08-13 22:00:00 16.7 6 Norte 22 Nordeste 0 955.1 0.9 66
2019-08-13 21:00:00 18.2 11 Nordeste 24 Nordeste 0 954.6 0.3 59
2019-08-13 20:00:00 20.4 12 Nordeste 27 Nordeste 0 954.1 -0.4 52
2019-08-13 19:00:00 22 12 Nordeste 34 Nordeste 0 954.2 -0.7 47
2019-08-13 18:00:00 23.2 13 Nordeste 25 Nordeste 0 954.3 -0.8 40
2019-08-13 17:00:00 23.6 7 Norte 21 Norte 0 954.5 -0.9 32
2019-08-13 16:00:00 22.9 9 Norte 30 Norte 0 954.9 -1.1 32
2019-08-13 15:00:00 22.8 10 Norte 24 Norte 0 955.1 -1.5 33
2019-08-13 14:00:00 21.2 8 Norte 20 Norte 0 955.4 -1.4 37
2019-08-13 13:00:00 20.1 5 Nordeste 19 Nordeste 0 956 -1.1 43
2019-08-13 12:00:00 17.8 6 Norte 14 Norte 0 956.6 -0.6 52
2019-08-13 11:00:00 16.4 4 Norte 10 Norte 0 956.8 -0.2 60
2019-08-13 10:00:00 13.4 2 Oeste 8 Sudoeste 0 957.1 0.6 73
2019-08-13 09:00:00 10.7 3 Sudoeste 7 Sudoeste 0 957.2 0.9 86
2019-08-13 08:00:00 9.1 2 Nordeste 5 Noroeste 0 957 0.4 91
2019-08-13 07:00:00 9.1 2 Norte 7 Noroeste 0 956.5 -0.4 91
2019-08-13 06:00:00 9.5 0 Calma 7 Nordeste 0 956.3 -1.2 90
2019-08-13 05:00:00 10 2 Noroeste 5 Nordeste 0 956.6 -1.5 90
2019-08-13 04:00:00 10.9 2 Sudoeste 7 Nordeste 0 956.9 -1.5 89
2019-08-13 03:00:00 12 0 Calma 4 Sudeste 0 957.5 -1.1 86
2019-08-13 02:00:00 12.8 0 Calma 7 Norte 0 958.1 -0.2 80
2019-08-13 01:00:00 13.1 4 Este 6 Este 0 958.4 0.8 81
2019-08-13 00:00:00 13.1 3 Nordeste 9 Norte 0 958.6 1.7 78
2019-08-12 23:00:00 13.7 4 Norte 21 Nordeste 0 958.3 1.5 75
2019-08-12 22:00:00 14.2 10 Nordeste 20 Nordeste 0 957.6 1.4 71
2019-08-12 21:00:00 15 6 Nordeste 24 Nordeste 0 956.9 0.8 64
2019-08-12 20:00:00 16.6 8 Norte 24 Nordeste 0 956.8 0.8 56
2019-08-12 19:00:00 16.5 14 Nordeste 31 Nordeste 0 956.2 0.2 59
2019-08-12 18:00:00 17.6 12 Nordeste 32 Norte 0 956.1 0 54
2019-08-12 17:00:00 18.7 12 Norte 37 Nordeste 0 956 -0.2 45
2019-08-12 16:00:00 20.3 9 Noroeste 33 Oeste 0 956 -0.3 43
2019-08-12 15:00:00 19 12 Noroeste 31 Oeste 0 956.1 -0.1 48
2019-08-12 14:00:00 20.2 11 Noroeste 27 Oeste 0 956.2 0.2 42
2019-08-12 13:00:00 19.2 6 Noroeste 17 Noroeste 0 956.3 0.6 41
2019-08-12 12:00:00 18.5 4 Noroeste 17 Nordeste 0.2 956.2 0.9 46
2019-08-12 11:00:00 16.9 3 Este 12 Oeste 0 956 1.2 52
2019-08-12 10:00:00 15.3 3 Este 6 Este 0 955.7 1.4 64
2019-08-12 09:00:00 12 2 Este 8 Nordeste 0 955.3 1.2 82
2019-08-12 08:00:00 9.1 3 Noroeste 9 Nordeste 0 954.8 0.6 91
2019-08-12 07:00:00 9.1 2 Nordeste 8 Nordeste 0 954.3 0.1 90
2019-08-12 06:00:00 9.9 0 Calma 14 Sudoeste 0 954.1 -0.4 90
2019-08-12 05:00:00 10.4 2 Nordeste 6 Este 0 954.2 -0.6 88
2019-08-12 04:00:00 11.9 0 Calma 6 Oeste 0 954.2 -0.8 84
2019-08-12 03:00:00 13.1 3 Sudeste 6 Sur 0 954.5 -0.2 83
2019-08-12 02:00:00 13.6 3 Sudeste 6 Este 0 954.8 0.3 85
2019-08-12 01:00:00 13.5 3 Nordeste 5 Norte 0 955 1.1 84
2019-08-12 00:00:00 13.4 3 Norte 7 Nordeste 0 954.7 1.1 82
2019-08-11 23:00:00 13.4 2 Sur 13 Nordeste 0 954.5 1.5 84
2019-08-11 22:00:00 13.8 4 Nordeste 12 Nordeste 0.6 953.9 1.5 79
2019-08-11 21:00:00 15.5 6 Nordeste 21 Norte 0 953.6 1.5 71
2019-08-11 20:00:00 16 10 Norte 29 Norte 0 953 1.3 67
2019-08-11 19:00:00 16.6 12 Norte 33 Norte 0 952.4 0.4 71
2019-08-11 18:00:00 17.2 14 Nordeste 28 Nordeste 0 952.1 0.8 74
2019-08-11 17:00:00 18.8 9 Nordeste 28 Nordeste 1.4 951.7 0 74
2019-08-11 16:00:00 16.8 10 Noroeste 39 Noroeste 4.2 952 -0.3 78
2019-08-11 15:00:00 20.5 12 Norte 24 Norte 0 951.3 -1.1 58
2019-08-11 14:00:00 20.7 8 Nordeste 18 Norte 0 951.7 -0.4 57
2019-08-11 13:00:00 18.3 6 Norte 13 Oeste 0 952.3 0.6 72
2019-08-11 12:00:00 17.2 3 Nordeste 11 Este 0 952.4 0.7 76
2019-08-11 11:00:00 16.1 2 Oeste 8 Oeste 0 952.1 0.5 79
2019-08-11 10:00:00 15 5 Noroeste 8 Noroeste 0 951.7 -0.3 87
2019-08-11 09:00:00 14.2 0 Calma 5 Norte 0 951.7 -0.1 87
2019-08-11 08:00:00 13.4 2 Norte 8 Nordeste 0.2 951.6 -0.1 91
2019-08-11 07:00:00 13.1 0 Calma 8 Este 1 952 -0.5 91
2019-08-11 06:00:00 13 6 Este 16 Oeste 1.4 951.8 -0.4 90
2019-08-11 05:00:00 13.3 7 Noroeste 22 Noroeste 2.8 951.7 -1.4 87
2019-08-11 04:00:00 15.9 2 Oeste 9 Sudoeste 0.4 952.5 -0.9 76
2019-08-11 03:00:00 16.4 4 Oeste 12 Noroeste 0 952.2 -1.8 68
2019-08-11 02:00:00 16.5 3 Noroeste 12 Norte 0 953.1 -1 67
2019-08-11 01:00:00 16.5 5 Nordeste 15 Este 0 953.4 -0.9 64
2019-08-11 00:00:00 16.6 5 Este 17 Nordeste 0 954 0.1 65
2019-08-10 23:00:00 16.7 6 Nordeste 26 Nordeste 0 954.1 0.7 69
2019-08-10 22:00:00 16.7 12 Nordeste 27 Nordeste 0 954.3 1.2 68
2019-08-10 21:00:00 17.1 10 Norte 29 Nordeste 0 953.9 1.2 67
2019-08-10 20:00:00 18 14 Nordeste 32 Norte 0 953.4 0.7 62
2019-08-10 19:00:00 19.7 13 Norte 33 Nordeste 0 953.1 0.3 58
2019-08-10 18:00:00 21.3 18 Nordeste 43 Nordeste 0 952.7 -0.3 55
2019-08-10 17:00:00 23.4 18 Nordeste 39 Nordeste 0 952.7 -0.7 49
2019-08-10 16:00:00 23.2 21 Nordeste 50 Nordeste 0 952.8 -0.7 49
2019-08-10 15:00:00 24.4 19 Nordeste 39 Nordeste 0 953 -1 44
2019-08-10 14:00:00 24.3 15 Nordeste 32 Norte 0 953.4 -0.6 43
2019-08-10 13:00:00 23 11 Nordeste 33 Este 0 953.5 -0.8 49
2019-08-10 12:00:00 21.8 6 Noroeste 17 Nordeste 0 954 0.1 54
2019-08-10 11:00:00 21.5 5 Este 11 Nordeste 0 954 0.6 58
2019-08-10 10:00:00 19.3 3 Nordeste 10 Oeste 0 954.3 1.4 66
2019-08-10 09:00:00 16.2 3 Nordeste 7 Este 0 953.9 1.2 75
2019-08-10 08:00:00 14 2 Noroeste 7 Norte 0 953.4 1 83
2019-08-10 07:00:00 13.4 3 Este 8 Oeste 0 952.9 0.8 84
2019-08-10 06:00:00 14 2 Norte 4 Nordeste 0 952.7 0.9 82
2019-08-10 05:00:00 14.2 3 Sur 6 Sur 0 952.4 0.6 81
2019-08-10 04:00:00 14.2 3 Nordeste 8 Nordeste 0 952.1 0.6 79
2019-08-10 03:00:00 14.8 3 Norte 9 Norte 0 951.8 0.7 78
2019-08-10 02:00:00 15.5 2 Nordeste 8 Este 0 951.8 1.4 74
2019-08-10 01:00:00 17.2 2 Norte 13 Nordeste 0 951.5 2 67
2019-08-10 00:00:00 18.8 5 Norte 14 Sur 0 951.1 2.4 56
2019-08-09 23:00:00 19.5 7 Sur 12 Sur 0 950.4 2.5 48
2019-08-09 22:00:00 23 3 Sudoeste 29 Sudoeste 0 949.5 2.2 35
2019-08-09 21:00:00 25.3 12 Sudoeste 35 Sudoeste 0 948.7 1.7 28
2019-08-09 20:00:00 26.7 18 Sudoeste 40 Oeste 0 947.9 1 24
2019-08-09 19:00:00 27.7 14 Sudoeste 40 Sudoeste 0 947.3 0.2 21
2019-08-09 18:00:00 29 15 Sudoeste 44 Sudoeste 0 947 -0.4 19
2019-08-09 17:00:00 30 22 Sudoeste 57 Oeste 0 946.9 -1 19
2019-08-09 16:00:00 28.5 19 Sudoeste 56 Sudoeste 0 947.1 -0.9 25
2019-08-09 15:00:00 27.7 14 Sudoeste 42 Sur 0 947.4 -0.6 41
2019-08-09 14:00:00 27.3 17 Sur 50 Sudoeste 0 947.9 1.3 45
2019-08-09 13:00:00 25 14 Sudoeste 41 Sudoeste 0.2 948 1.9 57
2019-08-09 12:00:00 22.8 16 Oeste 41 Sur 0.4 948 2.1 74
2019-08-09 11:00:00 24.8 14 Sudoeste 36 Sudoeste 0 946.6 1.1 56
2019-08-09 10:00:00 23.7 15 Sudoeste 41 Sudoeste 0 946.1 0.8 59
2019-08-09 09:00:00 23.2 11 Sudoeste 46 Sudoeste 0 945.9 0.8 59
2019-08-09 08:00:00 23.1 14 Sudoeste 37 Sudoeste 0 945.5 0.4 58
2019-08-09 07:00:00 23 10 Sur 41 Sudoeste 0 945.3 0 57
2019-08-09 06:00:00 23.4 13 Sudoeste 51 Sur 0 945.1 0.1 55
2019-08-09 05:00:00 24 12 Sudoeste 37 Sudoeste 0 945.1 0.3 53
2019-08-09 04:00:00 24.3 15 Sudoeste 39 Sudoeste 0 945.3 0 51
2019-08-09 03:00:00 24.9 12 Sudoeste 45 Sudoeste 0 945 0.6 50
2019-08-09 02:00:00 25.7 17 Oeste 37 Noroeste 0 944.8 0.3 48
2019-08-09 01:00:00 26.1 9 Oeste 39 Sudoeste 0 945.3 1.4 49
2019-08-09 00:00:00 27.1 9 Sudoeste 29 Sudoeste 0 944.4 0.9 43
2019-08-08 23:00:00 27.8 9 Sudoeste 31 Sudoeste 0 944.5 1 37
2019-08-08 22:00:00 28.1 6 Sudoeste 28 Sudoeste 0 943.9 0 38
2019-08-08 21:00:00 30 12 Sudoeste 40 Sudoeste 0 943.5 -0.7 34
2019-08-08 20:00:00 32 10 Sudoeste 36 Sudoeste 0 943.5 -1.4 32
2019-08-08 19:00:00 32.4 16 Sudoeste 37 Oeste 0 943.9 -1.9 31
2019-08-08 18:00:00 32.3 10 Sur 36 Sudoeste 0 944.2 -2.3 32
2019-08-08 17:00:00 31.7 17 Sudoeste 42 Sudoeste 0 944.9 -2.1 32
2019-08-08 16:00:00 30 14 Sudoeste 40 Sudoeste 0 945.8 -1 39
2019-08-08 15:00:00 28.1 11 Sudoeste 35 Sudoeste 0 946.5 -0.7 44
2019-08-08 14:00:00 27.1 14 Sur 41 Sudoeste 0 947 -0.3 48
2019-08-08 13:00:00 27.8 14 Sudoeste 39 Sur 0 946.8 -0.4 45
2019-08-08 12:00:00 26.4 17 Sudoeste 44 Sudoeste 0 947.2 0.1 47
2019-08-08 11:00:00 23.8 16 Sudoeste 36 Sudoeste 0 947.3 0.4 54
2019-08-08 10:00:00 22.9 13 Sudoeste 31 Sudoeste 0 947.2 0.1 58
2019-08-08 09:00:00 22.3 10 Oeste 23 Oeste 0 947.1 0 61
2019-08-08 08:00:00 21.3 8 Sudoeste 30 Sur 0 946.9 -0.5 64
2019-08-08 07:00:00 20.9 6 Sudoeste 19 Sudeste 0 947.1 0 64
2019-08-08 06:00:00 20.8 6 Sudoeste 23 Sur 0 947.1 0 64
2019-08-08 05:00:00 20.3 5 Sudeste 13 Sudoeste 0 947.4 0.2 64
2019-08-08 04:00:00 18.3 4 Nordeste 9 Norte 0 947.1 -0.2 74
2019-08-08 03:00:00 19.2 0 Calma 11 Oeste 0 947.1 -0.2 69
2019-08-08 02:00:00 19.9 4 Oeste 12 Oeste 0 947.2 -0.4 67
2019-08-08 01:00:00 20.3 0 Calma 12 Oeste 0 947.3 0.6 66
2019-08-08 00:00:00 21.5 4 Sudoeste 27 Sudoeste 0 947.3 0.9 59
2019-08-07 23:00:00 22.4 9 Sudoeste 33 Oeste 0 947.6 1.3 53
2019-08-07 22:00:00 23.1 4 Oeste 15 Sudoeste 0 946.7 0.3 49
2019-08-07 21:00:00 23.3 6 Nordeste 49 Noroeste 0 946.4 0.8 52
2019-08-07 20:00:00 24.2 3 Sudeste 39 Sur 0 946.3 0.8 46
2019-08-07 19:00:00 26.1 20 Oeste 42 Sudoeste 0 946.4 0.5 37
2019-08-07 18:00:00 27.6 10 Sudoeste 29 Oeste 0 945.6 -0.6 32
2019-08-07 17:00:00 28.9 5 Sur 17 Sur 0 945.5 -1.2 31
2019-08-07 16:00:00 29.5 4 Sur 17 Sur 0 945.9 -1.3 30
2019-08-07 15:00:00 28.3 5 Nordeste 19 Sudeste 0 946.2 -1.4 35
2019-08-07 14:00:00 28.6 5 Este 17 Sudeste 0 946.7 -1.2 34
2019-08-07 13:00:00 27.1 5 Sudoeste 21 Sur 0 947.2 -0.6 38
2019-08-07 12:00:00 25.4 5 Sudoeste 13 Sudeste 0 947.6 0.2 47
2019-08-07 11:00:00 23.3 4 Norte 10 Sur 0 947.9 0.7 54
2019-08-07 10:00:00 21.1 2 Este 8 Norte 0 947.8 1 64
2019-08-07 09:00:00 19.1 3 Este 6 Este 0 947.4 0.9 74
2019-08-07 08:00:00 16.3 0 Calma 5 Sudoeste 0 947.2 0.8 87
2019-08-07 07:00:00 16.6 0 Calma 8 Nordeste 0 946.8 0.3 86
2019-08-07 06:00:00 16.9 2 Norte 5 Sudoeste 0 946.5 0 84
2019-08-07 05:00:00 17.3 3 Oeste 8 Noroeste 0 946.4 -0.6 82
2019-08-07 04:00:00 17.7 2 Oeste 10 Norte 0 946.5 -1.5 79
2019-08-07 03:00:00 17.9 5 Norte 10 Norte 0 946.5 -2.1 77
2019-08-07 02:00:00 17.9 3 Sudoeste 18 Este 0 947 -2 79
2019-08-07 01:00:00 18.4 6 Sudeste 14 Este 0 948 -0.3 75
2019-08-07 00:00:00 18.7 4 Este 11 Nordeste 0 948.6 0.6 72
2019-08-06 23:00:00 19.3 5 Norte 18 Nordeste 0 949 2.1 69
2019-08-06 22:00:00 19.8 8 Norte 25 Norte 0 948.3 2 68
2019-08-06 21:00:00 20.5 14 Norte 31 Norte 0 948 2 67
2019-08-06 20:00:00 21.8 12 Norte 32 Norte 0 946.9 1.2 67
2019-08-06 19:00:00 23.8 15 Norte 34 Norte 0 946.3 0.9 63
2019-08-06 18:00:00 26.1 14 Norte 33 Nordeste 0 946 -0.1 53
2019-08-06 17:00:00 28.1 12 Norte 31 Nordeste 0 945.7 -1.2 43
2019-08-06 16:00:00 31.6 8 Nordeste 23 Nordeste 0 945.4 -2.2 27
2019-08-06 15:00:00 30.8 5 Este 16 Norte 0 946.1 -2.3 26
2019-08-06 14:00:00 27.6 6 Nordeste 12 Nordeste 0 946.9 -1.8 31
2019-08-06 13:00:00 26.1 3 Noroeste 11 Este 0 947.6 -1.2 31
2019-08-06 12:00:00 23.7 2 Este 9 Este 0 948.4 -0.6 44
2019-08-06 11:00:00 19.7 2 Sudeste 9 Noroeste 0 948.7 -0.3 65
2019-08-06 10:00:00 16.4 2 Sur 9 Noroeste 0 948.8 -0.1 76
2019-08-06 09:00:00 14.3 3 Norte 9 Oeste 0 949 0 84
2019-08-06 08:00:00 12.2 2 Oeste 5 Este 0 949 -0.3 92
2019-08-06 07:00:00 11.7 0 Calma 6 Norte 0 948.9 -0.7 91
2019-08-06 06:00:00 12.6 4 Norte 8 Norte 0 949 -0.8 91
2019-08-06 05:00:00 13 2 Norte 7 Sudoeste 0 949.3 -0.8 91
2019-08-06 04:00:00 13.4 0 Calma 6 Nordeste 0 949.6 -0.7 90
2019-08-06 03:00:00 14.4 0 Calma 7 Norte 0 949.8 -0.6 90
2019-08-06 02:00:00 15.2 3 Nordeste 6 Nordeste 0 950.1 -0.3 88
2019-08-06 01:00:00 16.2 2 Nordeste 5 Nordeste 0 950.3 0.6 84
2019-08-06 00:00:00 17.5 2 Norte 10 Norte 0 950.4 1.5 82
2019-08-05 23:00:00 18.5 5 Norte 18 Norte 0 950.4 1.8 78
2019-08-05 22:00:00 19.5 9 Nordeste 23 Nordeste 0 949.7 1.3 73
2019-08-05 21:00:00 21.1 13 Nordeste 28 Nordeste 0 948.9 0.7 68
2019-08-05 20:00:00 23.9 10 Nordeste 31 Norte 0 948.6 0.5 60
2019-08-05 19:00:00 24.9 16 Norte 36 Nordeste 0 948.4 0.1 57
2019-08-05 18:00:00 27.7 13 Nordeste 36 Norte 0 948.2 -0.4 47
2019-08-05 17:00:00 28.5 17 Norte 35 Nordeste 0 948.1 -1.1 42
2019-08-05 16:00:00 29.4 16 Nordeste 32 Nordeste 0 948.3 -1.5 36
2019-08-05 15:00:00 29.5 9 Nordeste 22 Nordeste 0 948.6 -1.8 34
2019-08-05 14:00:00 27.4 6 Norte 19 Nordeste 0 949.2 -1.6 39
2019-08-05 13:00:00 26.1 7 Noroeste 16 Noroeste 0 949.8 -1.6 44
2019-08-05 12:00:00 23.8 6 Noroeste 15 Oeste 0 950.4 -1.1 51
2019-08-05 11:00:00 21.2 5 Norte 11 Noroeste 0 950.8 -0.7 60
2019-08-05 10:00:00 18 3 Oeste 8 Noroeste 0 951.4 0 71
2019-08-05 09:00:00 15.2 2 Norte 5 Nordeste 0 951.5 0.5 81
2019-08-05 08:00:00 12.3 3 Nordeste 5 Nordeste 0 951.5 0.3 92
2019-08-05 07:00:00 11.9 2 Nordeste 8 Nordeste 0 951.4 -0.1 91
2019-08-05 06:00:00 12.4 5 Nordeste 8 Nordeste 0 951 -0.6 91
2019-08-05 05:00:00 13 0 Calma 4 Nordeste 0 951.2 -0.6 89
2019-08-05 04:00:00 13.8 0 Calma 6 Norte 0 951.5 -0.6 87
2019-08-05 03:00:00 14.6 4 Norte 8 Norte 0 951.6 -0.5 86
2019-08-05 02:00:00 15.7 2 Sudeste 5 Nordeste 0 951.8 -0.5 81
2019-08-05 01:00:00 17.2 4 Norte 7 Nordeste 0 952.1 0.3 77
2019-08-05 00:00:00 18.6 4 Norte 9 Nordeste 0 952.1 1 72
2019-08-04 23:00:00 19 3 Este 18 Nordeste 0 952.3 2 72
2019-08-04 22:00:00 18.9 10 Nordeste 27 Nordeste 0 951.8 2.7 72
2019-08-04 21:00:00 19 13 Nordeste 37 Nordeste 0 951.1 2.6 74
2019-08-04 20:00:00 20.4 19 Nordeste 38 Norte 0 950.3 1.8 71
2019-08-04 19:00:00 23.1 17 Nordeste 36 Nordeste 0 949.1 0.6 62
2019-08-04 18:00:00 26.2 13 Nordeste 38 Norte 0 948.5 -0.6 51
2019-08-04 17:00:00 27.9 18 Nordeste 36 Nordeste 0 948.5 -1.1 45
2019-08-04 16:00:00 29.5 5 Noroeste 16 Nordeste 0 948.5 -1.7 38
2019-08-04 15:00:00 27.1 9 Noroeste 16 Noroeste 0 949.1 -1.4 46
2019-08-04 14:00:00 24.1 6 Norte 15 Norte 0 949.6 -1.3 54
2019-08-04 13:00:00 23 4 Norte 12 Nordeste 0 950.2 -0.8 59
2019-08-04 12:00:00 20.5 3 Noroeste 8 Oeste 0 950.5 -0.4 70
2019-08-04 11:00:00 18.5 3 Noroeste 8 Noroeste 0 950.9 0.4 78
2019-08-04 10:00:00 16.9 3 Oeste 8 Oeste 0 951 0.8 81
2019-08-04 09:00:00 15.8 3 Oeste 7 Noroeste 0 950.9 0.9 81
2019-08-04 08:00:00 15.1 2 Oeste 9 Noroeste 0 950.5 0.3 87
2019-08-04 07:00:00 15 2 Noroeste 7 Noroeste 0 950.2 -0.3 87
2019-08-04 06:00:00 14.9 3 Oeste 6 Oeste 0 950 -0.4 89
2019-08-04 05:00:00 15.4 3 Oeste 7 Oeste 0 950.2 -0.1 89
2019-08-04 04:00:00 15.4 3 Oeste 7 Sudoeste 0 950.5 0.3 90
2019-08-04 03:00:00 16.2 2 Oeste 11 Noroeste 0 950.4 0 88
2019-08-04 02:00:00 17.1 4 Noroeste 11 Oeste 0 950.3 0.1 86
2019-08-04 01:00:00 17.8 6 Norte 12 Norte 0 950.2 0.7 84
2019-08-04 00:00:00 18.3 4 Norte 15 Norte 0 950.4 1.9 82
2019-08-03 23:00:00 19.3 4 Norte 16 Nordeste 0 950.2 2.6 78
2019-08-03 22:00:00 20.4 9 Norte 22 Nordeste 0 949.5 2.6 75
2019-08-03 21:00:00 23.3 12 Nordeste 33 Norte 0 948.5 1.6 57
2019-08-03 20:00:00 27.1 13 Nordeste 38 Nordeste 0 947.6 0.5 46
2019-08-03 19:00:00 29.6 17 Nordeste 35 Este 0 946.9 -0.5 38
2019-08-03 18:00:00 32.2 18 Nordeste 36 Este 0 946.9 -1.1 32
2019-08-03 17:00:00 33.3 14 Nordeste 34 Nordeste 0 947.1 -1.5 26
2019-08-03 16:00:00 34.3 7 Este 18 Sur 0 947.4 -2 20
2019-08-03 15:00:00 32.5 6 Sudoeste 19 Sur 0 948 -1.8 25
2019-08-03 14:00:00 30.7 8 Sur 19 Sudoeste 0 948.6 -1.8 26
2019-08-03 13:00:00 26.2 3 Sudoeste 12 Sudeste 0 949.4 -1.3 45
2019-08-03 12:00:00 21.6 5 Sur 10 Sur 0 949.8 -0.9 64
2019-08-03 11:00:00 16.5 4 Sudeste 9 Sur 0 950.4 -0.2 83
2019-08-03 10:00:00 14.1 2 Oeste 5 Oeste 0 950.7 0.1 93
2019-08-03 09:00:00 13.3 2 Sudoeste 4 Sudoeste 0 950.7 0.1 94
2019-08-03 08:00:00 12.5 3 Este 4 Este 0 950.6 0 94
2019-08-03 07:00:00 11.9 2 Sur 6 Nordeste 0 950.6 -0.4 93
2019-08-03 06:00:00 12 4 Nordeste 5 Nordeste 0 950.6 -0.8 91
2019-08-03 05:00:00 12.8 0 Calma 4 Noroeste 0 950.6 -0.9 90
2019-08-03 04:00:00 13.7 0 Calma 12 Noroeste 0 951 -0.5 89
2019-08-03 03:00:00 14.6 3 Noroeste 8 Noroeste 0 951.4 -0.2 90
2019-08-03 02:00:00 15.2 2 Este 9 Norte 0 951.5 -0.2 87
2019-08-03 01:00:00 16.7 4 Norte 13 Norte 0 951.5 0.4 84
2019-08-03 00:00:00 17.8 5 Norte 14 Norte 0 951.6 0.9 79
2019-08-02 23:00:00 18.9 5 Norte 12 Nordeste 0 951.7 1.5 75
2019-08-02 22:00:00 20.7 5 Norte 18 Nordeste 0 951.1 0.9 67
2019-08-02 21:00:00 23.3 10 Nordeste 24 Este 0 950.7 0.3 54
2019-08-02 20:00:00 26.2 10 Nordeste 24 Nordeste 0 950.2 -0.6 46
2019-08-02 19:00:00 27.2 9 Norte 24 Nordeste 0 950.2 -0.9 41
2019-08-02 18:00:00 28.4 10 Norte 26 Nordeste 0 950.4 -1 34
2019-08-02 17:00:00 28.3 13 Norte 25 Nordeste 0 950.8 -1 34
2019-08-02 16:00:00 28.3 8 Norte 22 Nordeste 0 951.1 -1 34
2019-08-02 15:00:00 27 11 Nordeste 24 Norte 0 951.4 -0.9 40
2019-08-02 14:00:00 25.4 9 Norte 24 Nordeste 0 951.8 -0.8 45
2019-08-02 13:00:00 23.9 6 Norte 22 Norte 0 952.1 -0.5 49
2019-08-02 12:00:00 22.2 7 Nordeste 17 Nordeste 0 952.3 0 52
2019-08-02 11:00:00 19.7 8 Norte 16 Nordeste 0 952.6 0.5 61
2019-08-02 10:00:00 18 5 Nordeste 13 Nordeste 0 952.6 0.7 69
2019-08-02 09:00:00 17 4 Nordeste 7 Norte 0 952.3 0.7 77
2019-08-02 08:00:00 15.5 3 Oeste 6 Noroeste 0 952.1 0.2 83
2019-08-02 07:00:00 15.4 3 Noroeste 7 Noroeste 0 951.9 -0.3 83
2019-08-02 06:00:00 15.3 3 Sudoeste 8 Noroeste 0 951.6 -0.8 84
2019-08-02 05:00:00 15.3 4 Noroeste 9 Oeste 0 951.9 -0.9 84
2019-08-02 04:00:00 15.4 3 Sudoeste 9 Norte 0 952.2 -0.7 85
2019-08-02 03:00:00 15.4 5 Oeste 8 Oeste 0 952.4 -0.4 86
2019-08-02 02:00:00 15.4 0 Calma 4 Este 0 952.8 0.3 87
2019-08-02 01:00:00 15 0 Calma 6 Oeste 0 952.9 1 88
2019-08-02 00:00:00 15.4 0 Calma 16 Nordeste 0 952.8 1.7 83
2019-08-01 23:00:00 16.4 9 Nordeste 19 Nordeste 0 952.5 1.7 81
2019-08-01 22:00:00 16.7 6 Nordeste 22 Nordeste 0 951.9 1.8 81
2019-08-01 21:00:00 17.3 8 Nordeste 30 Nordeste 0 951.1 1.4 80
2019-08-01 20:00:00 18.2 10 Norte 29 Nordeste 0 950.8 1.5 77
2019-08-01 19:00:00 18.8 14 Nordeste 31 Nordeste 0 950.1 1 75
2019-08-01 18:00:00 19.5 17 Nordeste 33 Nordeste 0 949.7 0.4 73
2019-08-01 17:00:00 20.5 13 Nordeste 28 Nordeste 0 949.3 -0.3 70
2019-08-01 16:00:00 22.2 5 Norte 14 Norte 0 949.1 -0.4 64
2019-08-01 15:00:00 20.6 4 Noroeste 14 Sudeste 0 949.3 -0.3 69
2019-08-01 14:00:00 19.8 5 Norte 9 Norte 0 949.6 0.1 72
2019-08-01 13:00:00 19.4 2 Oeste 8 Noroeste 0 949.5 0.2 71
2019-08-01 12:00:00 18.8 3 Oeste 9 Oeste 0 949.6 0.3 73
2019-08-01 11:00:00 17.5 3 Oeste 7 Oeste 0 949.5 0.4 80
2019-08-01 10:00:00 16.6 2 Norte 10 Norte 0 949.3 0.2 84
2019-08-01 09:00:00 16 3 Nordeste 10 Norte 0 949.3 0.1 89
2019-08-01 08:00:00 15.6 2 Nordeste 6 Norte 0 949.1 -0.1 90
2019-08-01 07:00:00 15.3 2 Este 11 Norte 0 949.1 -1.4 89
2019-08-01 06:00:00 15.4 3 Norte 12 Nordeste 0 949.2 -1.4 90
2019-08-01 05:00:00 15.3 3 Norte 13 Norte 0.4 949.2 -1.9 89
2019-08-01 04:00:00 15.4 5 Oeste 25 Nordeste 1.4 950.5 -1.1 87
2019-08-01 03:00:00 15.7 3 Norte 10 Nordeste 0 950.6 -1.1 81
2019-08-01 02:00:00 15.4 2 Norte 8 Norte 0 951.1 -0.6 80
2019-08-01 01:00:00 15.2 4 Norte 12 Norte 0 951.6 0.4 80
2019-08-01 00:00:00 15.1 5 Norte 13 Nordeste 0 951.7 1.2 79
2019-07-31 23:00:00 16 4 Norte 21 Norte 0 951.7 1.3 75
2019-07-31 22:00:00 17 12 Nordeste 26 Nordeste 0 951.2 0.7 70
2019-07-31 21:00:00 18.4 10 Nordeste 27 Nordeste 0 950.5 0 65
2019-07-31 20:00:00 20.6 12 Norte 28 Nordeste 0 950.4 -0.4 56
2019-07-31 19:00:00 22.3 11 Nordeste 27 Nordeste 0 950.5 -0.8 50
2019-07-31 18:00:00 22.3 13 Nordeste 32 Nordeste 0 950.5 -1.1 49
2019-07-31 17:00:00 21.9 15 Nordeste 31 Nordeste 0 950.8 -1.2 48
2019-07-31 16:00:00 21.9 13 Nordeste 32 Nordeste 0 951.3 -1.3 45
2019-07-31 15:00:00 22.3 13 Nordeste 31 Nordeste 0 951.6 -1.4 44
2019-07-31 14:00:00 22.4 13 Nordeste 26 Nordeste 0 952 -1.5 41
2019-07-31 13:00:00 22 9 Nordeste 35 Nordeste 0 952.6 -1.3 39
2019-07-31 12:00:00 20.4 8 Nordeste 21 Este 0 953 -1.2 43
2019-07-31 11:00:00 18.9 8 Este 20 Nordeste 0 953.5 -0.8 46
2019-07-31 10:00:00 15.5 5 Norte 12 Nordeste 0 953.9 -0.4 62
2019-07-31 09:00:00 12.3 5 Nordeste 10 Nordeste 0 954.2 -0.2 79
2019-07-31 08:00:00 10 2 Nordeste 9 Nordeste 0 954.3 0 87
2019-07-31 07:00:00 10.7 2 Sudoeste 5 Noroeste 0 954.3 -0.4 84
2019-07-31 06:00:00 11.6 0 Calma 6 Sur 0 954.4 -0.5 79
2019-07-31 05:00:00 12.9 2 Nordeste 17 Este 0 954.3 -0.9 74
2019-07-31 04:00:00 13.8 3 Norte 13 Este 0 954.7 -0.6 73
2019-07-31 03:00:00 14 4 Nordeste 11 Nordeste 0 954.9 -0.5 71
2019-07-31 02:00:00 14.2 5 Noroeste 11 Noroeste 0 955.2 -0.2 74
2019-07-31 01:00:00 13.7 4 Nordeste 16 Nordeste 0 955.3 0.8 76
2019-07-31 00:00:00 13.7 6 Nordeste 17 Norte 0 955.4 1.1 77
2019-07-30 23:00:00 14.1 5 Nordeste 15 Nordeste 0 955.4 1.6 73
2019-07-30 22:00:00 15.1 8 Nordeste 23 Nordeste 0 954.5 1 68
2019-07-30 21:00:00 17.1 12 Norte 31 Nordeste 0 954.3 0.6 58
2019-07-30 20:00:00 18.6 13 Norte 33 Norte 0 953.8 0.2 49
2019-07-30 19:00:00 20.6 11 Norte 31 Norte 0 953.5 0 43
2019-07-30 18:00:00 21 14 Norte 33 Nordeste 0 953.7 -0.1 42
2019-07-30 17:00:00 21.4 15 Norte 32 Norte 0 953.6 -0.4 40
2019-07-30 16:00:00 22.2 8 Nordeste 28 Nordeste 0 953.5 -0.6 34
2019-07-30 15:00:00 22.8 10 Nordeste 23 Este 0 953.8 -0.4 33
2019-07-30 14:00:00 21.1 4 Sudeste 17 Sudeste 0 954 0 34
2019-07-30 13:00:00 20.4 5 Oeste 24 Norte 0 954.1 0 39
2019-07-30 12:00:00 18.8 11 Nordeste 22 Este 0 954.2 0.6 42
2019-07-30 11:00:00 19.1 9 Nordeste 19 Nordeste 0 954 1.1 42
2019-07-30 10:00:00 17.9 4 Este 12 Nordeste 0 954.1 1.6 46
2019-07-30 09:00:00 14.8 3 Nordeste 8 Este 0 953.6 1.3 62
2019-07-30 08:00:00 13.9 0 Calma 5 Sudoeste 0 952.9 1.1 76
2019-07-30 07:00:00 14.2 3 Sur 6 Norte 0 952.5 0.9 70
2019-07-30 06:00:00 14.8 3 Norte 15 Nordeste 0 952.3 0.8 62
2019-07-30 05:00:00 15 5 Norte 15 Norte 0 951.8 0.3 66
2019-07-30 04:00:00 15 5 Nordeste 12 Nordeste 0 951.6 0.5 77
2019-07-30 03:00:00 14.9 3 Nordeste 12 Sudeste 0 951.5 0.5 77
2019-07-30 02:00:00 15.4 4 Nordeste 16 Nordeste 0 951.5 1 74
2019-07-30 01:00:00 15.9 8 Nordeste 19 Nordeste 0 951.1 1.4 72
2019-07-30 00:00:00 16.2 8 Nordeste 22 Nordeste 0 951 2.1 72
2019-07-29 23:00:00 16.4 10 Nordeste 23 Nordeste 0 950.5 2 72
2019-07-29 22:00:00 16.5 9 Nordeste 27 Nordeste 0 949.7 1.9 72
2019-07-29 21:00:00 16.7 11 Nordeste 29 Nordeste 0 948.9 2 74
2019-07-29 20:00:00 17.1 17 Nordeste 39 Nordeste 0 948.5 2.7 72
2019-07-29 19:00:00 18.3 22 Nordeste 41 Nordeste 0 947.8 2.3 68
2019-07-29 18:00:00 20.9 18 Norte 41 Norte 0 946.9 1.9 60
2019-07-29 17:00:00 23.5 21 Nordeste 49 Nordeste 0 945.8 0.8 54
2019-07-29 16:00:00 25.6 16 Nordeste 42 Nordeste 0 945.5 0.2 49
2019-07-29 15:00:00 29.2 17 Oeste 37 Sudoeste 0 945 -0.5 25
2019-07-29 14:00:00 28.1 15 Oeste 32 Oeste 0 945 -0.7 27
2019-07-29 13:00:00 26.1 5 Sudeste 20 Sudoeste 0 945.3 -0.5 32
2019-07-29 12:00:00 23.7 3 Oeste 10 Noroeste 0 945.5 -0.3 38
2019-07-29 11:00:00 20.4 2 Noroeste 8 Sudeste 0 945.7 0.1 48
2019-07-29 10:00:00 16.6 4 Este 8 Este 0 945.8 0.5 72
2019-07-29 09:00:00 13.6 0 Calma 6 Sudeste 0 945.8 0.7 83
2019-07-29 08:00:00 10.1 0 Calma 5 Nordeste 0 945.6 0.5 92
2019-07-29 07:00:00 9.8 3 Norte 6 Nordeste 0 945.3 0.4 92
2019-07-29 06:00:00 10.1 2 Nordeste 6 Este 0 945.1 0 91
2019-07-29 05:00:00 11 2 Norte 7 Norte 0 945.1 0.1 91
2019-07-29 04:00:00 11.5 3 Nordeste 5 Nordeste 0 944.9 -0.1 90
2019-07-29 03:00:00 12.3 2 Norte 7 Nordeste 0 945.1 -0.3 89
2019-07-29 02:00:00 13.3 0 Calma 6 Nordeste 0 945 -0.4 87
2019-07-29 01:00:00 14.6 0 Calma 6 Nordeste 0 945 0 84
2019-07-29 00:00:00 15.7 0 Calma 6 Este 0 945.4 0.7 81
2019-07-28 23:00:00 17.7 3 Este 15 Nordeste 0 945.4 0.8 72
2019-07-28 22:00:00 19.6 3 Norte 22 Nordeste 0 945 0.4 63
2019-07-28 21:00:00 21.9 10 Nordeste 26 Nordeste 0 944.7 -0.2 54
2019-07-28 20:00:00 23.4 14 Nordeste 30 Nordeste 0 944.6 -0.9 47
2019-07-28 19:00:00 25.2 12 Nordeste 25 Nordeste 0 944.6 -1.4 38
2019-07-28 18:00:00 25.7 10 Norte 23 Norte 0 944.9 -1.7 29
2019-07-28 17:00:00 26 6 Sur 16 Oeste 0 945.5 -1.6 28
2019-07-28 16:00:00 25.4 7 Este 18 Sudeste 0 946 -1.7 32
2019-07-28 15:00:00 24.4 5 Sudeste 16 Sudeste 0 946.6 -1.5 35
2019-07-28 14:00:00 22.3 4 Oeste 13 Sur 0 947.1 -1.4 40
2019-07-28 13:00:00 20.7 5 Nordeste 11 Nordeste 0 947.7 -0.8 49
2019-07-28 12:00:00 18.6 4 Noroeste 14 Oeste 0 948.1 -0.4 57
2019-07-28 11:00:00 18.8 4 Sudeste 10 Este 0 948.5 0 55
2019-07-28 10:00:00 16.3 4 Sudeste 8 Este 0 948.5 0.3 69
2019-07-28 09:00:00 14.2 0 Calma 14 Sudeste 0.2 948.5 0.5 82
2019-07-28 08:00:00 11.9 2 Este 6 Sudeste 0 948.5 0.2 92
2019-07-28 07:00:00 11.5 3 Sur 9 Sudeste 0.2 948.2 -0.2 91
2019-07-28 06:00:00 12.3 2 Noroeste 5 Sur 0.2 948 -0.4 90
2019-07-28 05:00:00 13.3 0 Calma 6 Sur 0 948.3 -0.3 91
2019-07-28 04:00:00 13.2 3 Noroeste 10 Norte 0.2 948.4 -0.2 90
2019-07-28 03:00:00 13 0 Calma 6 Sudoeste 0.2 948.4 -0.2 90
2019-07-28 02:00:00 13.5 2 Oeste 8 Oeste 0.4 948.6 0 90
2019-07-28 01:00:00 13.6 2 Oeste 7 Sudoeste 0.2 948.6 0.9 90
2019-07-28 00:00:00 14.1 3 Sudoeste 11 Oeste 0.2 948.6 1.5 86
2019-07-27 23:00:00 14.2 2 Norte 17 Norte 0.4 948.6 2.6 80
2019-07-26 12:00:00 -- -- -- -- -- -- -- -- --
2019-07-26 11:00:00 -- -- -- -- -- -- -- -- --
2019-07-26 10:00:00 -- -- -- -- -- -- -- -- --
2019-07-26 09:00:00 17.9 9 Nordeste 22 Nordeste 0 948 -0.5 83
2019-07-26 08:00:00 18.1 6 Norte 14 Nordeste 0.2 948 -1.1 89
2019-07-26 07:00:00 18.2 8 Nordeste 20 Nordeste 0 948.7 -0.1 87
2019-07-26 06:00:00 18.7 3 Oeste 14 Este 0 948.5 -0.7 81
2019-07-26 05:00:00 19 2 Norte 18 Nordeste 0 949.1 -0.3 77
2019-07-26 04:00:00 19.5 5 Norte 17 Sudeste 0 948.8 -0.9 71
2019-07-26 03:00:00 19.7 4 Este 12 Este 0 949.2 -0.6 72
2019-07-26 02:00:00 19.6 4 Nordeste 12 Norte 0 949.4 0.1 74
2019-07-26 01:00:00 19.9 5 Norte 16 Nordeste 0 949.7 0.9 73
2019-07-26 00:00:00 20.2 4 Norte 21 Norte 0 949.8 1.7 72
2019-07-25 23:00:00 20.5 8 Norte 26 Norte 0 949.3 2.1 71
2019-07-25 22:00:00 21 9 Nordeste 28 Nordeste 0 948.8 3.7 77
2019-07-25 21:00:00 22.1 12 Nordeste 35 Norte 0 948.1 3.6 75
2019-07-25 20:00:00 23.2 17 Nordeste 47 Nordeste 0 947.2 2.5 72
2019-07-25 19:00:00 26.9 23 Norte 46 Nordeste 0 945.1 -0.1 58
2019-07-25 18:00:00 36.6 10 Oeste 41 Oeste 0 944.5 -1 15
2019-07-25 17:00:00 35.8 15 Oeste 38 Oeste 0 944.7 -1.2 17
2019-07-25 16:00:00 36.1 12 Sudoeste 36 Sudoeste 0 945.2 -1.2 18
2019-07-25 15:00:00 35.7 16 Sudoeste 40 Sudoeste 0 945.5 -1.4 19
2019-07-25 14:00:00 35.4 15 Sudoeste 38 Oeste 0 945.9 -1.4 19
2019-07-25 13:00:00 34.4 7 Sudeste 27 Este 0 946.4 -1.3 22
2019-07-25 12:00:00 31.9 5 Sudeste 16 Sudeste 0 946.9 -0.8 26
2019-07-25 11:00:00 28.8 8 Sudeste 21 Sudeste 0 947.3 -0.1 33
2019-07-25 10:00:00 23.3 2 Nordeste 8 Este 0 947.7 0.7 50
2019-07-25 09:00:00 19.1 3 Oeste 9 Este 0 947.7 1 63
2019-07-25 08:00:00 15.6 2 Oeste 7 Nordeste 0 947.4 0.8 76
2019-07-25 07:00:00 15.4 0 Calma 8 Nordeste 0 947 0.1 76
2019-07-25 06:00:00 16 2 Nordeste 5 Este 0 946.7 0.2 74
2019-07-25 05:00:00 17 4 Noroeste 10 Noroeste 0 946.6 -0.2 71
2019-07-25 04:00:00 17.5 3 Este 7 Este 0 946.9 0.2 69
2019-07-25 03:00:00 18.5 0 Calma 9 Norte 0 946.5 -0.3 66
2019-07-25 02:00:00 20 0 Calma 8 Norte 0 946.8 0.2 61
2019-07-25 01:00:00 21.3 0 Calma 6 Nordeste 0 946.7 0.7 56
2019-07-25 00:00:00 23.7 4 Sudoeste 10 Nordeste 0 946.8 0.8 44
2019-07-24 23:00:00 25.7 5 Norte 10 Norte 0 946.6 0.2 38
2019-07-24 22:00:00 29.3 4 Sur 25 Este 0 946 -0.1 28
2019-07-24 21:00:00 31.9 14 Sudeste 37 Sudeste 0 946 -0.2 23
2019-07-24 20:00:00 31.9 20 Sudeste 38 Sudeste 0 946.4 -0.5 25
2019-07-24 19:00:00 31.1 11 Sudeste 44 Sudeste 0 946.1 -1.1 31
2019-07-24 18:00:00 35.4 11 Sudeste 28 Este 0 946.2 -1.6 19
2019-07-24 17:00:00 35.8 11 Sur 28 Sur 0 946.9 -1.7 18
2019-07-24 16:00:00 35.2 6 Noroeste 21 Oeste 0 947.2 -2.1 20
2019-07-24 15:00:00 36.4 13 Sudeste 31 Sudeste 0 947.8 -2.3 19
2019-07-24 14:00:00 35.2 7 Sur 20 Sudeste 0 948.6 -2 21
2019-07-24 13:00:00 31.9 5 Sur 14 Sudeste 0 949.3 -1.6 28
2019-07-24 12:00:00 28.7 6 Sur 12 Sur 0.2 950.1 -0.9 40
2019-07-24 11:00:00 24.4 4 Noroeste 10 Noroeste 0 950.6 -0.2 56
2019-07-24 10:00:00 21.1 2 Nordeste 8 Este 0 950.9 0.4 71
2019-07-24 09:00:00 19.1 3 Este 6 Este 0 951 0.5 78
2019-07-24 08:00:00 16.4 4 Sudeste 9 Norte 0 950.8 0.7 88
2019-07-24 07:00:00 15.9 2 Este 7 Norte 0 950.5 0.2 89
2019-07-24 06:00:00 16.6 5 Norte 10 Norte 0 950.5 0.1 89
2019-07-24 05:00:00 17.6 3 Este 7 Nordeste 0 950.1 -1.7 87
2019-07-24 04:00:00 18.8 3 Noroeste 9 Noroeste 0 950.3 -2.6 83
2019-07-24 03:00:00 19.4 4 Sur 15 Sudeste 0 950.4 -1.1 80
2019-07-24 02:00:00 19.8 4 Sur 14 Nordeste 0.4 951.8 -0.5 81
2019-07-24 01:00:00 20.8 7 Noroeste 27 Sur 0 952.9 2.6 71
2019-07-24 00:00:00 21.2 11 Sur 21 Sudeste 0 951.5 0.2 67
2019-07-23 23:00:00 21.7 8 Nordeste 19 Nordeste 0 952.3 2.4 66
2019-07-23 22:00:00 22.7 9 Oeste 27 Norte 0 950.3 1.9 61
2019-07-23 21:00:00 25 15 Norte 58 Sudoeste 0 951.3 3.1 45
2019-07-23 20:00:00 30.8 13 Sur 56 Sudoeste 0 949.9 0.9 22
2019-07-23 19:00:00 32.6 28 Sudeste 55 Sudeste 0 948.4 -0.8 17
2019-07-23 18:00:00 37.6 7 Sur 48 Sudeste 0 948.2 -1.5 15
2019-07-23 17:00:00 36.4 13 Sur 31 Sudeste 0 949 -1 17
2019-07-23 16:00:00 36.8 14 Sur 43 Oeste 0 949.2 -0.9 16
2019-07-23 15:00:00 36.7 15 Sur 44 Sur 0 949.7 -0.5 19
2019-07-23 14:00:00 34.2 12 Sur 33 Sudeste 0 950 -1.1 21
2019-07-23 13:00:00 32.6 12 Sudeste 26 Este 0 950.1 -2.3 26
2019-07-23 12:00:00 30.9 4 Este 31 Sudoeste 0 950.2 -2.5 26
2019-07-23 11:00:00 28 8 Sudoeste 28 Oeste 0 951.1 -0.8 31
2019-07-23 10:00:00 26 8 Sudoeste 22 Sur 0 952.4 0.9 35
2019-07-23 09:00:00 20.4 5 Sudeste 10 Este 0 952.7 1.3 61
2019-07-23 08:00:00 16.3 3 Norte 8 Oeste 0 951.9 0.1 76
2019-07-23 07:00:00 15.4 2 Nordeste 6 Nordeste 0 951.5 -0.5 78
2019-07-23 06:00:00 16.1 2 Norte 6 Nordeste 0 951.4 -1.1 77
2019-07-23 05:00:00 16.7 6 Oeste 12 Oeste 0 951.8 -0.9 73
2019-07-23 04:00:00 18 4 Norte 8 Nordeste 0 952 -1 71
2019-07-23 03:00:00 19.3 4 Nordeste 9 Nordeste 0 952.5 -0.2 65
2019-07-23 02:00:00 20.9 0 Calma 5 Nordeste 0 952.7 -0.2 61
2019-07-23 01:00:00 22.7 3 Norte 7 Este 0 953 1.9 53
2019-07-23 00:00:00 25.8 2 Norte 18 Nordeste 0 952.7 2 41
2019-07-22 23:00:00 28.9 9 Noroeste 37 Oeste 0 952.9 2.6 33
2019-07-22 22:00:00 29.4 9 Norte 19 Nordeste 0 951.1 0.6 42
2019-07-22 21:00:00 32.7 9 Nordeste 23 Nordeste 0 950.7 -0.2 32
2019-07-22 20:00:00 36.5 14 Sudeste 29 Sudeste 0 950.3 -1.2 18
2019-07-22 19:00:00 37.7 13 Sudeste 28 Sudeste 0 950.5 -1.7 17
2019-07-22 18:00:00 38.2 13 Sudeste 30 Sudeste 0 950.9 -2 17
2019-07-22 17:00:00 37.9 10 Sudeste 23 Sudeste 0 951.5 -2.1 19
2019-07-22 16:00:00 36.9 10 Sudeste 25 Sur 0 952.2 -2.2 22
2019-07-22 15:00:00 35.5 9 Sudeste 23 Sudeste 0 952.9 -2.2 26
2019-07-22 14:00:00 33.2 8 Sudeste 19 Sudeste 0 953.6 -2.2 32
2019-07-22 13:00:00 30.2 6 Sudeste 18 Este 0 954.4 -1.8 41
2019-07-22 12:00:00 27 4 Sudeste 17 Sudeste 0 955.1 -1.1 51
2019-07-22 11:00:00 23.8 5 Sudeste 12 Sudeste 0 955.8 -0.4 62
2019-07-22 10:00:00 20.3 2 Norte 9 Norte 0 956.2 0.1 77
2019-07-22 09:00:00 19.2 4 Norte 9 Nordeste 0 956.2 0.2 82
2019-07-22 08:00:00 18.6 4 Nordeste 12 Nordeste 0 956.2 0.2 84
2019-07-22 07:00:00 18.4 6 Nordeste 12 Nordeste 0 956.1 -0.2 85
2019-07-22 06:00:00 18.6 5 Nordeste 15 Nordeste 0 956 -0.6 84
2019-07-22 05:00:00 18.5 5 Norte 12 Norte 0 956 -1.1 83
2019-07-22 04:00:00 18.7 5 Norte 12 Nordeste 0 956.3 -1 82
2019-07-22 03:00:00 18.8 6 Norte 13 Nordeste 0 956.6 -0.8 81
2019-07-22 02:00:00 18.9 4 Norte 21 Nordeste 0 957.1 -0.1 80
2019-07-22 01:00:00 18.9 8 Norte 19 Norte 0 957.3 0.5 80
2019-07-22 00:00:00 19.1 5 Norte 14 Norte 0 957.4 1.3 79
2019-07-21 23:00:00 19.6 6 Nordeste 19 Norte 0 957.2 2 76
2019-07-21 22:00:00 19.8 9 Nordeste 33 Nordeste 0 956.8 2.1 77
2019-07-21 21:00:00 20.1 18 Nordeste 37 Nordeste 0 956.1 1.9 77
2019-07-21 20:00:00 22.5 12 Norte 40 Nordeste 0 955.2 1.1 69
2019-07-21 19:00:00 24.7 14 Norte 36 Nordeste 0 954.7 0.2 62
2019-07-21 18:00:00 27.5 13 Norte 27 Nordeste 0 954.2 -0.9 52
2019-07-21 17:00:00 27.7 8 Norte 28 Noroeste 0 954.1 -1.8 49
2019-07-21 16:00:00 26.3 8 Norte 21 Norte 0 954.5 -1.7 52
2019-07-21 15:00:00 24.9 6 Nordeste 18 Nordeste 0 955.1 -0.9 54
2019-07-21 14:00:00 22.3 8 Nordeste 16 Nordeste 0 955.9 0.3 64
2019-07-21 13:00:00 21.3 9 Nordeste 18 Nordeste 0 956.2 0.8 69
2019-07-21 12:00:00 20.2 6 Nordeste 18 Nordeste 0 956 1 74
2019-07-21 11:00:00 19.5 9 Nordeste 18 Nordeste 0 955.6 0.9 76
2019-07-21 10:00:00 19.3 9 Nordeste 19 Nordeste 0 955.4 0.8 76
2019-07-21 09:00:00 18.8 3 Norte 10 Nordeste 0 955 0.2 76
2019-07-21 08:00:00 18.4 6 Nordeste 12 Nordeste 0 954.7 -0.1 77
2019-07-21 07:00:00 18.1 4 Norte 10 Norte 0 954.6 -0.4 79
2019-07-21 06:00:00 18 4 Norte 10 Norte 0 954.8 -0.5 79
2019-07-21 05:00:00 17.9 5 Norte 8 Nordeste 0 954.8 -0.7 79
2019-07-21 04:00:00 17.8 5 Nordeste 13 Norte 0 955 -0.5 79
2019-07-21 03:00:00 18.1 7 Nordeste 19 Nordeste 0 955.3 0.3 80
2019-07-21 02:00:00 18.3 10 Nordeste 20 Nordeste 0 955.5 0.8 80
2019-07-21 01:00:00 18.6 10 Nordeste 27 Nordeste 0 955.5 1.6 78
2019-07-21 00:00:00 19 8 Nordeste 21 Nordeste 0 955 1.6 76
2019-07-20 23:00:00 19.1 10 Nordeste 32 Nordeste 0 954.7 2.3 75
2019-07-20 22:00:00 19.1 13 Nordeste 31 Norte 0 953.9 2 75
2019-07-20 21:00:00 19.5 14 Nordeste 37 Nordeste 0 953.4 2.2 74
2019-07-20 20:00:00 20.5 17 Nordeste 37 Norte 0 952.4 1.9 73
2019-07-20 19:00:00 22.8 16 Norte 39 Nordeste 0 951.9 1.5 63
2019-07-20 18:00:00 24.9 18 Norte 43 Norte 0 951.2 0.7 56
2019-07-20 17:00:00 26.8 17 Norte 39 Norte 0 950.5 0.2 47
2019-07-20 16:00:00 27.7 18 Norte 37 Nordeste 0 950.4 0 43
2019-07-20 15:00:00 27.8 14 Norte 33 Nordeste 0 950.5 0.1 41
2019-07-20 14:00:00 28 10 Nordeste 22 Nordeste 0 950.3 -0.3 40
2019-07-20 13:00:00 27.2 9 Nordeste 22 Nordeste 0 950.4 0 39
2019-07-20 12:00:00 25.4 8 Nordeste 21 Norte 0 950.4 0.3 48
2019-07-20 11:00:00 23.1 6 Norte 14 Norte 0 950.6 1 56
2019-07-20 10:00:00 21.2 4 Noroeste 12 Norte 0 950.4 1.2 66
2019-07-20 09:00:00 17.9 5 Norte 14 Norte 0 950.1 1.3 79
2019-07-20 08:00:00 15.1 3 Nordeste 4 Nordeste 0 949.6 1.1 87
2019-07-20 07:00:00 14.5 3 Nordeste 5 Norte 0 949.2 0.7 87
2019-07-20 06:00:00 15.4 2 Nordeste 8 Oeste 0 948.8 0.3 87
2019-07-20 05:00:00 15.9 2 Este 5 Este 0 948.5 0 84
2019-07-20 04:00:00 16.8 0 Calma 7 Norte 0 948.5 0 80
2019-07-20 03:00:00 18.2 0 Calma 8 Norte 0 948.5 0.2 77
2019-07-20 02:00:00 19.3 3 Norte 9 Nordeste 0 948.5 0.5 76
2019-07-20 01:00:00 20.2 2 Norte 9 Norte 0 948.5 1.2 72
2019-07-20 00:00:00 21.3 4 Noroeste 14 Norte 0 948.3 1.9 68
2019-07-19 23:00:00 22.1 5 Norte 20 Noroeste 0 948 2.3 65
2019-07-19 22:00:00 24.1 8 Norte 24 Noroeste 0 947.3 1.8 58
2019-07-19 21:00:00 27.4 9 Norte 33 Norte 0 946.4 0.7 45
2019-07-19 20:00:00 30.2 14 Nordeste 36 Nordeste 0 945.7 -0.1 33
2019-07-19 19:00:00 32.3 16 Nordeste 36 Nordeste 0 945.5 -1.3 27
2019-07-19 18:00:00 34.1 13 Nordeste 35 Nordeste 0 945.7 -1.9 24
2019-07-19 17:00:00 34.8 8 Noroeste 18 Sur 0 945.8 -2.7 18
2019-07-19 16:00:00 34.7 8 Este 20 Sudeste 0 946.8 -2.5 19
2019-07-19 15:00:00 32.6 3 Nordeste 14 Sur 0 947.6 -2.5 23
2019-07-19 14:00:00 30.3 4 Sudeste 15 Sudeste 0 948.5 -2.4 27
2019-07-19 13:00:00 27.4 5 Este 14 Sur 0 949.3 -2.4 32
2019-07-19 12:00:00 23.1 3 Oeste 10 Sur 0 950.1 -1.6 49
2019-07-19 11:00:00 20.1 3 Sudoeste 9 Sur 0 950.9 -0.8 59
2019-07-19 10:00:00 17.1 4 Sudeste 8 Sudeste 0 951.7 -0.2 71
2019-07-19 09:00:00 12.9 3 Este 6 Este 0 951.7 -0.5 90
2019-07-19 08:00:00 10.9 3 Nordeste 5 Nordeste 0 951.7 -0.7 93
2019-07-19 07:00:00 9.8 0 Calma 7 Nordeste 0 951.9 -0.6 91
2019-07-19 06:00:00 10.6 4 Norte 8 Norte 0 952.2 -0.8 91
2019-07-19 05:00:00 11.3 0 Calma 6 Este 0 952.4 -0.7 90
2019-07-19 04:00:00 12 0 Calma 6 Sudeste 0 952.5 -0.6 89
2019-07-19 03:00:00 13.2 0 Calma 4 Noroeste 0 953 0 88
2019-07-19 02:00:00 14.2 0 Calma 6 Este 0 953.1 0.3 86
2019-07-19 01:00:00 15.6 0 Calma 8 Norte 0 953.1 0.9 82
2019-07-19 00:00:00 16.8 3 Norte 17 Nordeste 0 953 1.4 79
2019-07-18 23:00:00 17.7 6 Norte 22 Nordeste 0 952.8 1.5 75
2019-07-18 22:00:00 19.2 10 Nordeste 25 Norte 0 952.2 1 67
2019-07-18 21:00:00 21.6 11 Norte 28 Nordeste 0 951.6 0.6 58
2019-07-18 20:00:00 23.4 15 Nordeste 30 Nordeste 0 951.3 0.1 49
2019-07-18 19:00:00 24.9 13 Nordeste 29 Nordeste 0 951.2 -0.3 48
2019-07-18 18:00:00 26 15 Nordeste 32 Norte 0 951 -0.7 44
2019-07-18 17:00:00 26.4 12 Nordeste 28 Nordeste 0 951.2 -0.9 40
2019-07-18 16:00:00 26.9 9 Nordeste 22 Nordeste 0 951.5 -0.8 32
2019-07-18 15:00:00 25.5 6 Norte 24 Nordeste 0 951.7 -1.1 36
2019-07-18 14:00:00 24.6 7 Nordeste 23 Nordeste 0 952.1 -0.6 38
2019-07-18 13:00:00 23.2 5 Nordeste 23 Norte 0 952.3 -0.7 41
2019-07-18 12:00:00 20.9 8 Norte 18 Nordeste 0 952.8 -0.2 49
2019-07-18 11:00:00 19.5 6 Norte 16 Nordeste 0 952.7 -0.2 55
2019-07-18 10:00:00 17.4 3 Oeste 8 Noroeste 0 953 0.4 68
2019-07-18 09:00:00 14.9 0 Calma 5 Este 0 953 0.4 75
2019-07-18 08:00:00 12.1 0 Calma 3 Este 0 952.9 0.4 89
2019-07-18 07:00:00 11.4 0 Calma 4 Sur 0 952.6 0 89
2019-07-18 06:00:00 12.7 2 Oeste 8 Nordeste 0 952.6 -0.4 86
2019-07-18 05:00:00 14.6 2 Nordeste 9 Nordeste 0 952.5 -0.7 80
2019-07-18 04:00:00 16.2 5 Nordeste 12 Nordeste 0 952.6 -0.7 76
2019-07-18 03:00:00 16.6 5 Nordeste 16 Nordeste 0 953 -0.1 75
2019-07-18 02:00:00 16.9 6 Nordeste 13 Nordeste 0 953.2 0.2 75
2019-07-18 01:00:00 16.9 6 Nordeste 18 Nordeste 0 953.3 0.7 75
2019-07-18 00:00:00 17.2 8 Nordeste 21 Norte 0 953.1 0.8 76